Time;durP1;ratioP1;P1;durP2;ratioP2;P2;SDS_P1;SDS_P2;PMS_P1;PMS_P2;Temp;Humidity;BMP_temperature;BMP_pressure;BME280_temperature;BME280_humidity;BME280_pressure;Samples;Min_cycle;Max_cycle;Signal;HPM_P1;HPM_P2
2021/12/10 00:01:06;;;;;;;15.10;11.03;;;2.30;99.90;;;3.02;100.00;96671.94;5227768;28;20200;-64
2021/12/10 00:03:43;;;;;;;13.43;9.70;;;2.30;99.90;;;3.02;100.00;96651.75;5225999;28;20312;-61
2021/12/10 00:06:21;;;;;;;12.73;8.77;;;2.30;99.90;;;3.03;100.00;96657.66;5221511;28;20675;-60
2021/12/10 00:08:59;;;;;;;17.03;12.10;;;2.30;99.90;;;3.00;100.00;96637.28;5220185;28;20663;-61
2021/12/10 00:11:37;;;;;;;19.80;13.30;;;2.30;99.90;;;2.99;100.00;96635.53;5209184;28;20223;-61
2021/12/10 00:14:11;;;;;;;16.87;12.80;;;2.20;99.90;;;2.94;100.00;96631.03;5223651;28;20661;-63
2021/12/10 00:16:46;;;;;;;14.03;9.97;;;2.20;99.90;;;2.84;100.00;96623.66;5221868;28;20232;-62
2021/12/10 00:19:30;;;;;;;14.77;9.50;;;2.10;99.90;;;2.79;100.00;96612.38;5214723;28;20246;-62
2021/12/10 00:22:09;;;;;;;14.80;10.37;;;2.10;99.90;;;2.77;100.00;96613.03;5213693;28;20221;-64
2021/12/10 00:24:45;;;;;;;11.97;8.67;;;2.00;99.90;;;2.68;100.00;96604.09;5219724;28;20207;-62
2021/12/10 00:27:27;;;;;;;9.47;8.50;;;1.90;99.90;;;2.67;100.00;96602.34;5218332;28;20210;-64
2021/12/10 00:30:08;;;;;;;9.17;8.07;;;1.80;99.90;;;2.56;100.00;96605.78;5213270;28;20570;-64
2021/12/10 00:32:50;;;;;;;9.73;8.73;;;1.80;99.90;;;2.49;100.00;96596.09;5213438;28;20300;-64
2021/12/10 00:35:27;;;;;;;12.43;10.90;;;1.70;99.90;;;2.38;100.00;96602.06;5213921;28;20198;-63
2021/12/10 00:38:01;;;;;;;14.07;10.17;;;1.60;99.90;;;2.30;100.00;96599.00;5209908;28;20204;-64
2021/12/10 00:40:35;;;;;;;10.10;9.07;;;1.60;99.90;;;2.21;100.00;96594.22;5213392;28;20202;-64
2021/12/10 00:43:08;;;;;;;12.20;8.50;;;1.50;99.90;;;2.21;100.00;96595.88;5213275;28;20225;-64
2021/12/10 00:45:42;;;;;;;11.13;8.30;;;1.50;99.90;;;2.11;100.00;96591.81;5212293;28;20567;-61
2021/12/10 00:48:17;;;;;;;12.07;7.77;;;1.40;99.90;;;2.09;100.00;96583.31;5218370;28;20212;-61
2021/12/10 00:50:54;;;;;;;8.40;7.50;;;1.30;99.90;;;2.08;100.00;96580.66;5227121;28;20207;-62
2021/12/10 00:53:28;;;;;;;8.23;7.40;;;1.40;99.90;;;2.05;100.00;96573.75;5216334;28;20221;-63
2021/12/10 00:56:03;;;;;;;6.97;6.27;;;1.40;99.90;;;2.08;100.00;96573.97;5214687;28;20221;-62
2021/12/10 00:58:38;;;;;;;10.03;6.50;;;1.30;99.90;;;1.97;100.00;96562.28;5206957;28;20197;-62
2021/12/10 01:01:23;;;;;;;6.97;6.27;;;1.30;99.90;;;1.86;100.00;96550.59;5211377;28;20228;-63
2021/12/10 01:04:06;;;;;;;11.67;6.60;;;1.10;99.90;;;1.89;100.00;96544.16;5212659;28;20221;-63
2021/12/10 01:06:43;;;;;;;6.80;6.20;;;1.10;99.90;;;1.88;100.00;96547.41;5207193;28;20194;-63
2021/12/10 01:09:22;;;;;;;7.07;6.37;;;1.20;99.90;;;1.87;100.00;96538.13;5219724;28;20201;-61
2021/12/10 01:12:04;;;;;;;6.93;6.07;;;1.20;99.90;;;1.86;100.00;96535.47;5214520;28;20228;-63
2021/12/10 01:15:03;;;;;;;6.47;5.30;;;1.20;99.90;;;1.73;100.00;96533.78;5215461;28;20280;-62
2021/12/10 01:23:50;;;;;;;6.73;6.10;;;1.00;99.90;;;1.73;100.00;96516.16;5223411;28;20236;-61
2021/12/10 01:26:41;;;;;;;7.07;6.40;;;1.00;99.90;;;1.63;100.00;96514.66;5216390;28;20194;-62
2021/12/10 01:29:20;;;;;;;6.17;5.67;;;0.90;99.90;;;1.63;100.00;96502.06;5208911;28;20208;-62
2021/12/10 01:31:54;;;;;;;8.50;6.93;;;0.90;99.90;;;1.62;100.00;96510.38;5205932;28;20193;-62
2021/12/10 01:34:28;;;;;;;8.43;6.70;;;0.90;99.90;;;1.60;100.00;96506.00;5208741;28;20198;-62
2021/12/10 01:37:04;;;;;;;8.70;6.13;;;0.90;99.90;;;1.61;100.00;96501.06;5212782;28;20594;-62
2021/12/10 01:39:42;;;;;;;10.60;6.97;;;0.90;99.90;;;1.62;100.00;96497.78;5211624;28;20207;-63
2021/12/10 01:42:19;;;;;;;10.50;6.40;;;0.90;99.90;;;1.63;100.00;96499.53;5209472;28;20239;-62
2021/12/10 01:44:56;;;;;;;7.13;6.43;;;0.90;99.90;;;1.60;100.00;96493.41;5208357;28;20202;-63
2021/12/10 01:47:35;;;;;;;7.30;5.63;;;0.90;99.90;;;1.47;100.00;96491.69;5205470;28;20208;-62
2021/12/10 01:50:09;;;;;;;7.10;6.40;;;0.80;99.90;;;1.51;100.00;96483.56;5205437;28;20273;-62
2021/12/10 01:52:44;;;;;;;7.03;5.23;;;0.80;99.90;;;1.46;100.00;96475.72;5212807;28;20220;-62
2021/12/10 01:55:20;;;;;;;7.50;5.83;;;0.70;99.90;;;1.44;100.00;96471.34;5222409;28;20211;-62
2021/12/10 01:57:54;;;;;;;6.27;5.57;;;0.70;99.90;;;1.41;100.00;96466.09;5212655;28;20210;-62
2021/12/10 02:00:34;;;;;;;9.77;6.27;;;0.70;99.90;;;1.41;100.00;96459.44;5205136;28;20201;-62
2021/12/10 02:03:08;;;;;;;38.60;7.87;;;0.70;99.90;;;1.32;100.00;96457.16;5210997;28;20303;-62
2021/12/10 02:05:42;;;;;;;19.23;5.90;;;0.60;99.90;;;1.29;100.00;96454.41;5221375;28;20285;-62
2021/12/10 02:08:16;;;;;;;7.67;5.47;;;0.60;99.90;;;1.26;100.00;96451.69;5216545;28;20197;-62
2021/12/10 02:10:49;;;;;;;40.80;7.57;;;0.50;99.90;;;1.21;100.00;96447.97;5218007;28;20290;-62
2021/12/10 02:13:23;;;;;;;5.30;5.00;;;0.40;99.90;;;1.10;100.00;96443.84;5220448;28;20220;-62
2021/12/10 02:15:56;;;;;;;19.87;6.63;;;0.40;99.90;;;1.10;100.00;96437.16;5216892;28;20288;-62
2021/12/10 02:18:30;;;;;;;63.17;8.67;;;0.30;99.90;;;1.04;100.00;96433.34;5204886;28;20324;-62
2021/12/10 02:21:17;;;;;;;61.90;8.70;;;0.30;99.90;;;1.00;100.00;96423.81;5205522;28;20194;-63
2021/12/10 02:23:56;;;;;;;90.17;9.33;;;0.30;99.90;;;0.95;100.00;96410.09;5214160;28;20236;-62
2021/12/10 02:26:34;;;;;;;5.83;5.43;;;0.20;99.90;;;0.97;100.00;96398.47;5209794;28;20201;-61
2021/12/10 02:29:10;;;;;;;8.27;5.07;;;0.30;99.90;;;0.84;100.00;96384.16;5218188;28;20213;-62
2021/12/10 02:31:43;;;;;;;11.23;5.13;;;0.20;99.90;;;0.82;100.00;96383.19;5204835;28;20198;-62
2021/12/10 02:34:16;;;;;;;20.00;6.37;;;0.20;99.90;;;0.84;100.00;96380.00;5204644;28;20302;-62
2021/12/10 02:36:51;;;;;;;34.97;6.47;;;0.20;99.90;;;0.77;100.00;96372.78;5218011;28;20232;-63
2021/12/10 02:39:27;;;;;;;19.87;6.03;;;0.20;99.90;;;0.78;100.00;96369.53;5216502;28;20212;-62
2021/12/10 02:42:00;;;;;;;7.20;6.23;;;0.10;99.90;;;0.79;100.00;96357.81;5214117;28;20224;-62
2021/12/10 02:44:34;;;;;;;5.20;4.80;;;0.20;99.90;;;0.76;100.00;96358.47;5209576;28;20578;-63
2021/12/10 02:47:07;;;;;;;22.53;5.93;;;0.10;99.90;;;0.79;100.00;96346.13;5213368;28;20669;-62
2021/12/10 02:49:41;;;;;;;8.10;5.27;;;0.20;99.90;;;0.82;100.00;96337.91;5208779;28;20197;-62
2021/12/10 02:52:16;;;;;;;9.03;5.43;;;0.20;99.90;;;0.80;100.00;96330.28;5210565;28;20229;-62
2021/12/10 02:54:49;;;;;;;5.80;5.30;;;0.20;99.90;;;0.70;100.00;96325.38;5211749;28;20676;-62
2021/12/10 02:57:22;;;;;;;5.50;5.00;;;0.10;99.90;;;0.73;100.00;96329.75;5219404;28;20275;-62
2021/12/10 02:59:55;;;;;;;5.70;5.27;;;0.10;99.90;;;0.79;100.00;96320.97;5208571;28;20204;-62
2021/12/10 03:02:28;;;;;;;6.57;5.97;;;0.10;99.90;;;0.85;100.00;96320.53;5214849;28;20216;-62
2021/12/10 03:05:03;;;;;;;6.10;5.60;;;0.10;99.90;;;0.76;100.00;96325.78;5227406;28;20209;-63
2021/12/10 03:07:41;;;;;;;7.00;5.50;;;0.10;99.90;;;0.82;100.00;96320.31;5218821;28;20195;-62
2021/12/10 03:10:20;;;;;;;122.73;14.03;;;0.10;99.90;;;0.78;100.00;96319.25;5213422;28;20204;-63
2021/12/10 03:12:53;;;;;;;6.33;5.70;;;0.10;99.90;;;0.76;100.00;96312.34;5215007;28;20235;-62
2021/12/10 03:15:29;;;;;;;33.43;7.23;;;0.00;99.90;;;0.65;100.00;96299.03;5215707;28;20204;-62
2021/12/10 03:18:10;;;;;;;17.17;6.33;;;0.00;99.90;;;0.62;100.00;96278.72;5213645;28;20235;-62
2021/12/10 03:20:43;;;;;;;35.47;8.20;;;-0.10;99.90;;;0.60;100.00;96277.72;5216664;28;20208;-63
2021/12/10 03:23:18;;;;;;;6.10;5.10;;;-0.10;99.90;;;0.52;100.00;96268.81;5218876;28;20242;-61
2021/12/10 03:25:51;;;;;;;6.63;6.10;;;-0.20;99.90;;;0.44;100.00;96268.28;5216654;28;20202;-62
2021/12/10 03:28:24;;;;;;;6.33;5.80;;;-0.20;99.90;;;0.41;100.00;96265.56;5210449;28;20683;-62
2021/12/10 03:30:57;;;;;;;6.13;5.53;;;-0.20;99.90;;;0.39;100.00;96265.44;5211890;28;20205;-62
2021/12/10 03:33:31;;;;;;;6.37;4.83;;;-0.20;99.90;;;0.37;100.00;96269.50;5218513;28;20783;-63
2021/12/10 03:36:06;;;;;;;5.33;4.80;;;-0.20;99.90;;;0.39;100.00;96278.00;5220988;28;20224;-63
2021/12/10 03:38:43;;;;;;;6.07;5.40;;;-0.20;99.90;;;0.41;100.00;96278.13;5219712;28;20223;-63
2021/12/10 03:41:17;;;;;;;8.77;6.10;;;-0.20;99.90;;;0.43;100.00;96269.91;5215906;28;20206;-61
2021/12/10 03:43:54;;;;;;;6.40;5.07;;;-0.20;99.90;;;0.42;100.00;96263.13;5215606;28;20220;-62
2021/12/10 03:46:28;;;;;;;7.03;6.23;;;-0.20;99.90;;;0.41;100.00;96258.00;5216918;28;20206;-62
2021/12/10 03:49:03;;;;;;;9.20;6.20;;;-0.10;99.90;;;0.48;100.00;96256.78;5217605;28;20209;-62
2021/12/10 03:51:37;;;;;;;9.60;6.67;;;-0.10;99.90;;;0.60;100.00;96267.69;5215551;28;20199;-62
2021/12/10 03:54:13;;;;;;;7.03;6.33;;;-0.20;99.90;;;0.60;100.00;96267.69;5218176;28;20206;-62
2021/12/10 03:56:49;;;;;;;7.60;6.90;;;-0.20;99.90;;;0.62;100.00;96266.16;5214505;28;20596;-62
2021/12/10 03:59:23;;;;;;;6.43;5.83;;;-0.10;99.90;;;0.56;100.00;96266.59;5214253;28;20219;-62
2021/12/10 04:01:58;;;;;;;8.23;6.73;;;-0.20;99.90;;;0.54;100.00;96268.13;5213127;28;20756;-62
2021/12/10 04:04:39;;;;;;;9.43;7.13;;;-0.20;99.90;;;0.54;100.00;96262.22;5221022;28;20290;-62
2021/12/10 04:07:17;;;;;;;9.97;7.47;;;-0.20;99.90;;;0.56;100.00;96256.53;5214007;28;20594;-63
2021/12/10 04:09:52;;;;;;;7.87;6.33;;;-0.20;99.90;;;0.48;100.00;96254.28;5221907;28;20207;-62
2021/12/10 04:12:26;;;;;;;8.73;6.47;;;-0.20;99.90;;;0.48;100.00;96257.66;5221935;28;20262;-62
2021/12/10 04:14:59;;;;;;;10.90;6.80;;;-0.20;99.90;;;0.45;100.00;96254.94;5213746;28;20204;-61
2021/12/10 04:17:33;;;;;;;8.53;6.30;;;-0.20;99.90;;;0.30;100.00;96237.16;5213108;28;20216;-62
2021/12/10 04:20:09;;;;;;;11.63;6.80;;;-0.30;99.90;;;0.32;100.00;96235.63;5206391;28;20211;-62
2021/12/10 04:22:46;;;;;;;9.57;6.47;;;-0.30;99.90;;;0.42;100.00;96232.97;5214160;28;20228;-62
2021/12/10 04:25:24;;;;;;;11.57;7.30;;;-0.20;99.90;;;0.44;100.00;96225.56;5209677;28;20283;-62
2021/12/10 04:28:00;;;;;;;9.10;8.27;;;-0.20;99.90;;;0.48;100.00;96211.56;5224360;28;20196;-63
2021/12/10 04:30:37;;;;;;;13.33;9.73;;;-0.20;99.90;;;0.47;100.00;96199.78;5218932;28;20227;-63
2021/12/10 04:33:15;;;;;;;12.40;10.23;;;-0.20;99.90;;;0.59;100.00;96196.44;5212935;28;20238;-63
2021/12/10 04:35:51;;;;;;;20.13;10.83;;;-0.20;99.90;;;0.61;100.00;96186.50;5214071;28;20201;-63
2021/12/10 04:38:27;;;;;;;17.07;10.33;;;-0.10;99.90;;;0.45;100.00;96179.53;5218310;28;20209;-63
2021/12/10 04:41:06;;;;;;;15.37;10.87;;;-0.30;99.90;;;0.43;100.00;96174.44;5223126;28;20204;-62
2021/12/10 04:43:48;;;;;;;16.50;11.00;;;-0.30;99.90;;;0.38;100.00;96159.81;5217242;28;20583;-62
2021/12/10 04:46:21;;;;;;;16.97;11.23;;;-0.30;99.90;;;0.37;100.00;96158.94;5217907;28;20197;-62
2021/12/10 04:48:58;;;;;;;19.73;12.07;;;-0.40;99.90;;;0.37;100.00;96153.91;5206099;28;20197;-63
2021/12/10 04:51:37;;;;;;;15.87;11.70;;;-0.40;99.90;;;0.36;100.00;96146.25;5206072;28;20214;-61
2021/12/10 04:54:12;;;;;;;16.90;12.57;;;-0.40;99.90;;;0.41;100.00;96140.78;5214412;28;20204;-62
2021/12/10 04:56:47;;;;;;;16.47;11.67;;;-0.30;99.90;;;0.30;100.00;96134.16;5216417;28;20589;-62
2021/12/10 04:59:20;;;;;;;17.10;12.30;;;-0.40;99.90;;;0.33;100.00;96141.03;5214782;28;20217;-62
2021/12/10 05:01:56;;;;;;;16.13;11.07;;;-0.40;99.90;;;0.30;100.00;96134.16;5219261;28;20205;-63
2021/12/10 05:04:31;;;;;;;17.23;12.57;;;-0.40;99.90;;;0.40;100.00;96139.03;5214187;28;20579;-62
2021/12/10 05:07:06;;;;;;;17.73;12.23;;;-0.30;99.90;;;0.30;100.00;96126.63;5210865;28;20198;-61
2021/12/10 05:09:40;;;;;;;18.67;13.80;;;-0.40;99.90;;;0.32;100.00;96129.25;5210146;28;20601;-64
2021/12/10 05:12:14;;;;;;;18.43;13.70;;;-0.40;99.90;;;0.28;100.00;96133.16;5208572;28;20718;-63
2021/12/10 05:14:47;;;;;;;20.80;13.90;;;-0.40;99.90;;;0.25;100.00;96132.97;5219723;28;20208;-63
2021/12/10 05:17:24;;;;;;;20.50;13.83;;;-0.40;99.90;;;0.27;100.00;96133.09;5225507;28;20211;-63
2021/12/10 05:20:00;;;;;;;24.23;14.90;;;-0.40;99.90;;;0.32;100.00;96120.06;5225318;28;20786;-63
2021/12/10 05:22:33;;;;;;;24.20;14.97;;;-0.30;99.90;;;0.30;100.00;96126.63;5252998;22;20223;-62
2021/12/10 05:25:08;;;;;;;16.23;13.30;;;-0.30;99.90;;;0.26;100.00;96116.25;5240578;28;20669;-62
2021/12/10 05:27:43;;;;;;;17.23;12.57;;;-0.40;99.90;;;0.17;100.00;96119.00;5257335;28;20632;-63
2021/12/10 05:30:22;;;;;;;19.70;13.70;;;-0.50;99.90;;;0.21;100.00;96108.41;5230620;28;20198;-62
2021/12/10 05:32:56;;;;;;;17.70;12.77;;;-0.50;99.90;;;0.28;100.00;96102.16;5226379;28;20226;-63
2021/12/10 05:35:30;;;;;;;18.07;13.03;;;-0.50;99.90;;;0.27;100.00;96110.47;5238240;28;20206;-62
2021/12/10 05:38:03;;;;;;;15.57;12.70;;;-0.40;99.90;;;0.24;100.00;96102.72;5248221;28;20207;-63
2021/12/10 05:40:36;;;;;;;14.90;11.80;;;-0.50;99.90;;;0.19;100.00;96097.38;5248253;28;20302;-60
2021/12/10 05:43:11;;;;;;;21.70;13.40;;;-0.50;99.90;;;0.16;100.00;96097.19;5246262;28;20228;-60
2021/12/10 05:45:49;;;;;;;15.93;12.60;;;-0.50;99.90;;;0.07;100.00;96094.06;5247500;28;20201;-60
2021/12/10 05:48:23;;;;;;;16.10;12.70;;;-0.60;99.90;;;0.05;100.00;96088.03;5249836;28;20203;-60
2021/12/10 05:50:56;;;;;;;17.37;12.50;;;-0.60;99.90;;;0.03;100.00;96084.56;5258625;28;20204;-60
2021/12/10 05:53:30;;;;;;;17.77;13.53;;;-0.60;99.90;;;0.11;100.00;96078.41;5232806;28;20222;-60
2021/12/10 05:56:05;;;;;;;19.90;14.80;;;-0.60;99.90;;;0.09;100.00;96067.41;5248631;28;20198;-60
2021/12/10 05:58:40;;;;;;;21.40;15.30;;;-0.60;99.90;;;0.13;100.00;96064.31;5250206;28;20223;-62
2021/12/10 06:01:17;;;;;;;21.37;14.83;;;-0.60;99.90;;;0.12;100.00;96055.06;5248074;28;20211;-62
2021/12/10 06:03:53;;;;;;;21.73;15.97;;;-0.60;99.90;;;0.08;100.00;96048.94;5243478;28;20219;-62
2021/12/10 06:06:29;;;;;;;19.50;15.40;;;-0.60;99.90;;;0.08;100.00;96045.56;5247997;28;20644;-62
2021/12/10 06:09:07;;;;;;;23.10;15.77;;;-0.50;99.90;;;0.19;100.00;96035.47;5243968;28;20567;-62
2021/12/10 06:11:40;;;;;;;22.23;15.37;;;-0.50;99.90;;;0.25;100.00;96032.47;5239218;28;20205;-62
2021/12/10 06:14:14;;;;;;;23.13;16.23;;;-0.50;99.90;;;0.23;100.00;96039.06;5245380;28;20241;-62
2021/12/10 06:16:48;;;;;;;20.90;15.10;;;-0.40;99.90;;;0.19;100.00;96042.13;5240419;28;20314;-62
2021/12/10 06:19:23;;;;;;;21.87;15.10;;;-0.40;99.90;;;0.21;100.00;96035.56;5246012;28;20686;-62
2021/12/10 06:21:56;;;;;;;19.97;15.13;;;-0.40;99.90;;;0.11;100.00;96026.53;5264259;28;20203;-62
2021/12/10 06:24:29;;;;;;;21.80;14.23;;;-0.50;99.90;;;0.04;100.00;96021.03;5243484;28;20220;-62
2021/12/10 06:27:03;;;;;;;19.10;13.17;;;-0.60;99.90;;;0.04;100.00;96021.88;5254062;28;20212;-62
2021/12/10 06:29:41;;;;;;;19.67;13.63;;;-0.60;99.90;;;0.03;100.00;96024.28;5248442;28;20194;-62
2021/12/10 06:32:14;;;;;;;16.93;12.70;;;-0.60;99.90;;;-0.11;100.00;96011.69;5250044;28;20300;-62
2021/12/10 06:34:47;;;;;;;20.03;13.13;;;-0.70;99.90;;;-0.03;100.00;96014.69;5249774;28;20668;-62
2021/12/10 06:37:21;;;;;;;19.97;13.13;;;-0.70;99.90;;;-0.08;100.00;96021.06;5259620;28;20210;-60
2021/12/10 06:39:54;;;;;;;19.57;15.93;;;-0.70;99.90;;;-0.04;100.00;96013.84;5252043;28;20226;-60
2021/12/10 06:42:27;;;;;;;20.90;14.37;;;-0.70;99.90;;;-0.03;100.00;96015.59;5251852;28;20200;-60
2021/12/10 06:45:15;;;;;;;20.20;13.90;;;-0.70;99.90;;;-0.05;100.00;96011.25;5252098;28;20221;-61
2021/12/10 06:47:50;;;;;;;19.07;13.87;;;-0.70;99.90;;;-0.12;100.00;96004.91;5239919;28;20192;-61
2021/12/10 06:50:26;;;;;;;24.50;16.13;;;-0.70;99.90;;;-0.12;100.00;96004.91;5270649;28;20199;-60
2021/12/10 06:53:05;;;;;;;20.97;14.97;;;-0.70;99.90;;;-0.11;100.00;96000.78;5255896;28;20227;-61
2021/12/10 06:55:39;;;;;;;18.97;14.80;;;-0.80;99.90;;;-0.15;100.00;96001.34;5259442;28;20589;-60
2021/12/10 06:58:12;;;;;;;20.53;13.13;;;-0.80;99.90;;;-0.16;100.00;96002.97;5261740;28;20207;-60
2021/12/10 07:00:50;;;;;;;15.37;11.70;;;-0.90;99.90;;;-0.19;100.00;95994.38;5247454;28;20604;-60
2021/12/10 07:03:26;;;;;;;20.03;13.43;;;-0.90;99.90;;;-0.19;100.00;95994.38;5252796;28;20220;-60
2021/12/10 07:06:01;;;;;;;18.77;13.63;;;-1.00;99.90;;;-0.29;100.00;95991.22;5255621;28;20190;-60
2021/12/10 07:08:38;;;;;;;18.70;12.93;;;-1.00;99.90;;;-0.35;100.00;95979.91;5248374;28;20194;-60
2021/12/10 07:11:14;;;;;;;17.10;12.00;;;-1.10;99.90;;;-0.35;100.00;95975.75;5261916;28;20667;-61
2021/12/10 07:13:51;;;;;;;18.23;15.30;;;-1.00;99.90;;;-0.36;100.00;95978.19;5245518;28;20223;-61
2021/12/10 07:16:26;;;;;;;19.30;15.23;;;-1.00;99.90;;;-0.32;100.00;95962.53;5254671;28;20203;-60
2021/12/10 07:19:04;;;;;;;17.67;14.50;;;-1.00;99.90;;;-0.43;100.00;95953.41;5248762;28;20215;-60
2021/12/10 07:21:38;;;;;;;19.47;13.13;;;-1.10;99.90;;;-0.39;100.00;95943.72;5256151;28;20195;-63
2021/12/10 07:24:16;;;;;;;18.90;14.73;;;-1.10;99.90;;;-0.22;100.00;95947.34;5253698;28;20231;-63
2021/12/10 07:26:50;;;;;;;19.77;14.23;;;-1.00;99.90;;;-0.17;100.00;95950.16;5256579;28;20197;-62
2021/12/10 07:29:23;;;;;;;22.23;14.43;;;-0.90;99.90;;;-0.03;100.00;95945.28;5254433;28;20195;-63
2021/12/10 07:31:58;;;;;;;22.40;14.93;;;-0.70;99.90;;;0.07;100.00;95935.84;5250264;28;20196;-63
2021/12/10 07:34:31;;;;;;;25.03;15.93;;;-0.40;99.90;;;0.11;100.00;95935.25;5252493;28;20588;-63
2021/12/10 07:37:07;;;;;;;25.80;15.90;;;-0.30;99.90;;;0.16;100.00;95933.91;5253652;28;20201;-63
2021/12/10 07:39:40;;;;;;;20.60;14.77;;;-0.60;99.90;;;0.17;100.00;95918.06;5257196;28;20223;-63
2021/12/10 07:42:13;;;;;;;20.43;13.67;;;-0.60;99.90;;;0.08;100.00;95909.94;5244419;28;20207;-63
2021/12/10 07:44:46;;;;;;;18.97;14.27;;;-0.60;99.90;;;0.08;100.00;95907.44;5249828;28;20215;-63
2021/12/10 07:47:22;;;;;;;21.60;14.77;;;-0.50;99.90;;;0.26;100.00;95898.59;5248809;28;20663;-63
2021/12/10 07:49:55;;;;;;;22.03;14.77;;;-0.50;99.90;;;0.30;100.00;95884.56;5257191;28;20536;-63
2021/12/10 07:52:33;;;;;;;22.20;15.00;;;-0.50;99.90;;;0.27;100.00;95860.13;5242703;28;20197;-64
2021/12/10 07:55:10;;;;;;;23.87;14.90;;;-0.60;99.90;;;0.30;100.00;95860.31;5253132;28;20203;-63
2021/12/10 07:57:45;;;;;;;20.30;15.00;;;-0.50;99.90;;;0.26;100.00;95842.44;5263179;28;20209;-63
2021/12/10 08:00:21;;;;;;;22.13;15.83;;;-0.50;99.90;;;0.36;100.00;95830.56;5256359;28;20599;-64
2021/12/10 08:02:56;;;;;;;22.63;14.53;;;-0.40;99.90;;;0.39;100.00;95819.84;5241042;28;20224;-63
2021/12/10 08:05:29;;;;;;;23.23;15.30;;;-0.30;99.90;;;0.43;100.00;95800.03;5255908;28;20203;-63
2021/12/10 08:08:06;;;;;;;22.37;15.03;;;-0.30;99.90;;;0.50;100.00;95818.00;5258415;28;20365;-64
2021/12/10 08:10:42;;;;;;;18.27;14.27;;;-0.20;99.90;;;0.56;100.00;95824.25;5252964;28;20201;-64
2021/12/10 08:13:17;;;;;;;20.10;15.37;;;-0.10;99.90;;;0.55;100.00;95831.72;5254836;28;20654;-63
2021/12/10 08:15:50;;;;;;;19.73;14.50;;;-0.20;99.90;;;0.49;100.00;95826.28;5255353;28;20229;-63
2021/12/10 08:18:25;;;;;;;18.23;13.90;;;-0.20;99.90;;;0.51;100.00;95819.72;5244057;28;20204;-64
2021/12/10 08:21:00;;;;;;;16.90;13.53;;;-0.30;99.90;;;0.53;100.00;95823.22;5260246;28;20222;-64
2021/12/10 08:23:35;;;;;;;16.97;13.07;;;-0.30;99.90;;;0.52;100.00;95818.97;5268352;28;20237;-64
2021/12/10 08:26:09;;;;;;;17.03;12.67;;;-0.20;99.90;;;0.59;100.00;95833.63;5242143;28;20202;-64
2021/12/10 08:28:42;;;;;;;17.53;13.53;;;-0.10;99.90;;;0.63;100.00;95833.03;5255301;28;20317;-64
2021/12/10 08:31:17;;;;;;;14.60;11.77;;;0.00;99.90;;;0.74;100.00;95833.69;5253100;28;20216;-62
2021/12/10 08:33:51;;;;;;;14.43;11.63;;;0.10;99.90;;;0.79;100.00;95832.34;5247262;28;20222;-63
2021/12/10 08:36:25;;;;;;;16.13;12.13;;;0.10;99.90;;;0.72;100.00;95821.06;5247473;28;20199;-64
2021/12/10 08:38:58;;;;;;;15.70;12.17;;;0.10;99.90;;;0.82;100.00;95822.47;5247256;28;20203;-63
2021/12/10 08:41:34;;;;;;;14.80;12.37;;;0.10;99.90;;;0.88;100.00;95828.72;5248005;28;20591;-64
2021/12/10 08:44:09;;;;;;;16.80;13.07;;;0.20;99.90;;;0.91;100.00;95823.00;5243141;28;20226;-64
2021/12/10 08:46:44;;;;;;;15.17;11.50;;;0.20;99.90;;;0.94;100.00;95822.34;5257245;28;20206;-63
2021/12/10 08:49:20;;;;;;;13.53;11.30;;;0.20;99.90;;;1.00;100.00;95817.66;5249923;28;20617;-64
2021/12/10 08:51:57;;;;;;;15.20;11.53;;;0.20;99.90;;;1.03;100.00;95817.84;5255435;28;20294;-63
2021/12/10 08:54:32;;;;;;;14.27;10.93;;;0.30;99.90;;;1.19;100.00;95810.44;5265190;28;20219;-63
2021/12/10 08:57:08;;;;;;;12.73;10.43;;;0.40;99.90;;;1.21;100.00;95813.94;5244103;28;20217;-63
2021/12/10 08:59:42;;;;;;;13.57;10.67;;;0.40;99.90;;;1.25;100.00;95815.84;5239335;28;20192;-63
2021/12/10 09:02:18;;;;;;;9.57;8.63;;;0.50;99.90;;;1.28;100.00;95813.50;5255718;28;20240;-63
2021/12/10 09:04:54;;;;;;;10.83;9.63;;;0.50;99.90;;;1.26;100.00;95817.59;5260560;28;20543;-63
2021/12/10 09:07:27;;;;;;;11.27;9.20;;;0.50;99.90;;;1.36;100.00;95824.03;5258060;28;20207;-63
2021/12/10 09:10:01;;;;;;;8.07;7.27;;;0.60;99.90;;;1.39;100.00;95819.16;5260022;28;20202;-63
2021/12/10 09:12:35;;;;;;;7.80;7.00;;;0.60;99.90;;;1.47;100.00;95814.59;5246008;28;20655;-62
2021/12/10 09:15:16;;;;;;;9.57;8.27;;;0.70;99.90;;;1.55;100.00;95823.47;5240910;28;20203;-63
2021/12/10 09:17:52;;;;;;;9.20;8.40;;;0.80;99.90;;;1.59;100.00;95827.88;5251731;28;20309;-62
2021/12/10 09:20:32;;;;;;;11.43;9.77;;;0.80;99.90;;;1.67;100.00;95826.69;5253444;28;20210;-62
2021/12/10 09:23:06;;;;;;;11.40;10.20;;;0.90;99.90;;;1.62;100.00;95822.16;5268192;28;20608;-62
2021/12/10 09:25:41;;;;;;;10.17;9.17;;;0.90;99.90;;;1.68;100.00;95818.34;5256550;28;20200;-62
2021/12/10 09:28:14;;;;;;;10.47;9.53;;;1.00;99.90;;;1.85;100.00;95823.47;5245269;28;20205;-62
2021/12/10 09:30:51;;;;;;;10.43;9.27;;;1.10;99.90;;;1.89;100.00;95822.84;5244001;28;20291;-62
2021/12/10 09:33:24;;;;;;;10.33;9.20;;;1.10;99.90;;;1.93;100.00;95814.69;5248721;28;20315;-62
2021/12/10 09:36:00;;;;;;;13.53;12.13;;;1.10;99.90;;;1.92;100.00;95812.97;5253629;28;20693;-62
2021/12/10 09:38:34;;;;;;;14.37;10.83;;;1.20;99.90;;;1.88;100.00;95800.97;5255826;28;20195;-62
2021/12/10 09:41:10;;;;;;;8.77;7.90;;;1.20;99.90;;;1.91;99.93;95801.16;5252030;28;20303;-61
2021/12/10 09:43:44;;;;;;;8.47;7.57;;;1.10;99.90;;;2.14;100.00;95797.38;5245999;28;20221;-62
2021/12/10 09:46:17;;;;;;;13.47;10.53;;;1.30;99.90;;;2.16;100.00;95784.09;5253442;28;20203;-62
2021/12/10 09:48:51;;;;;;;12.47;11.17;;;1.30;99.90;;;2.04;100.00;95788.47;5246349;28;20200;-62
2021/12/10 09:51:30;;;;;;;11.00;8.23;;;1.30;99.90;;;2.08;98.97;95780.28;5234465;28;20200;-62
2021/12/10 09:54:11;;;;;;;5.67;5.17;;;1.30;99.90;;;2.23;92.91;95786.19;5244563;28;20310;-62
2021/12/10 09:56:50;;;;;;;6.40;5.30;;;1.50;99.90;;;2.26;85.52;95767.81;5252092;28;20196;-62
2021/12/10 09:59:24;;;;;;;5.43;4.90;;;1.60;99.90;;;2.35;87.52;95752.34;5238766;28;20227;-62
2021/12/10 10:01:59;;;;;;;5.53;4.23;;;1.70;99.90;;;2.29;87.81;95754.50;5247866;28;20311;-62
2021/12/10 10:04:34;;;;;;;4.67;4.07;;;1.70;99.90;;;2.32;83.79;95744.59;5247769;28;20226;-62
2021/12/10 10:07:13;;;;;;;6.20;4.70;;;1.70;99.90;;;2.23;85.15;95750.91;5243754;28;20210;-61
2021/12/10 10:09:51;;;;;;;6.87;5.27;;;1.70;99.90;;;2.30;88.59;95741.16;5258170;28;20223;-62
2021/12/10 10:12:29;;;;;;;5.47;4.50;;;1.70;99.90;;;2.41;92.66;95735.03;5254240;28;20690;-62
2021/12/10 10:15:20;;;;;;;5.43;4.93;;;1.80;99.90;;;2.53;95.16;95740.72;5246249;28;20200;-62
2021/12/10 10:18:01;;;;;;;4.83;4.43;;;1.80;99.90;;;2.62;90.91;95735.28;5236241;28;20227;-62
2021/12/10 10:20:40;;;;;;;5.73;5.23;;;1.80;99.90;;;2.75;94.47;95731.75;5246245;28;20200;-62
2021/12/10 10:23:16;;;;;;;5.23;4.73;;;1.90;99.90;;;2.73;81.68;95720.72;5259172;28;20724;-62
2021/12/10 10:25:53;;;;;;;6.17;5.53;;;2.10;99.90;;;2.66;86.55;95722.94;5237914;28;20243;-62
2021/12/10 10:28:28;;;;;;;6.37;5.77;;;2.10;99.90;;;2.61;89.21;95713.41;5245627;28;20193;-62
2021/12/10 10:31:09;;;;;;;6.07;5.37;;;2.00;99.90;;;2.73;91.73;95718.22;5258982;28;20196;-62
2021/12/10 10:33:42;;;;;;;6.57;5.37;;;2.00;99.90;;;2.77;89.64;95715.91;5267245;28;20227;-61
2021/12/10 10:36:23;;;;;;;6.53;5.03;;;2.10;99.90;;;2.87;88.23;95709.69;5262985;28;20259;-61
2021/12/10 10:39:04;;;;;;;5.57;4.90;;;2.20;99.90;;;2.92;92.96;95706.63;5252396;28;20287;-61
2021/12/10 10:41:38;;;;;;;20.47;18.33;;;2.20;99.90;;;2.98;86.30;95715.28;5249806;28;20234;-62
2021/12/10 10:44:13;;;;;;;5.13;4.63;;;2.30;99.90;;;3.11;83.34;95699.97;5238414;28;20223;-61
2021/12/10 10:46:48;;;;;;;4.93;4.47;;;2.50;99.90;;;3.07;84.12;95686.34;5256707;28;20207;-62
2021/12/10 10:49:38;;;;;;;6.10;5.20;;;2.50;99.90;;;2.94;81.08;95694.94;5255298;28;20197;-62
2021/12/10 10:52:22;;;;;;;5.93;5.00;;;2.40;99.90;;;2.89;83.29;95698.00;5253044;28;20572;-62
2021/12/10 10:55:00;;;;;;;5.03;4.60;;;2.30;99.90;;;2.92;83.09;95698.19;5236585;28;20201;-61
2021/12/10 10:57:33;;;;;;;4.60;4.37;;;2.30;99.90;;;2.91;85.87;95701.47;5244683;28;20292;-62